Time;durP1;ratioP1;P1;durP2;ratioP2;P2;SDS_P1;SDS_P2;PMS_P1;PMS_P2;Temp;Humidity;BMP_temperature;BMP_pressure;BME280_temperature;BME280_humidity;BME280_pressure;Samples;Min_cycle;Max_cycle;Signal;HPM_P1;HPM_P2
2022/07/07 00:01:37;;;;;;;2.55;1.80;;;27.90;69.40;;;;;;5055544;28;20025;-82
2022/07/07 00:04:03;;;;;;;3.45;1.60;;;27.80;68.70;;;;;;5055893;28;20017;-82
2022/07/07 00:26:41;;;;;;;2.55;1.63;;;27.30;71.40;;;;;;5048227;28;20078;-83
2022/07/07 00:29:07;;;;;;;3.17;2.10;;;27.40;70.80;;;;;;5035460;28;20013;-83
2022/07/07 00:31:33;;;;;;;3.30;2.30;;;27.30;71.30;;;;;;5041443;28;20381;-80
2022/07/07 00:33:59;;;;;;;2.50;1.83;;;27.30;71.30;;;;;;5054484;28;20040;-83
2022/07/07 00:36:25;;;;;;;3.10;2.22;;;27.30;71.10;;;;;;5055456;28;20025;-82
2022/07/07 00:38:50;;;;;;;3.88;2.05;;;27.10;71.40;;;;;;5054712;28;20389;-82
2022/07/07 00:41:16;;;;;;;2.42;1.70;;;27.00;70.60;;;;;;5054923;28;20106;-82
2022/07/07 00:43:43;;;;;;;5.30;2.58;;;26.70;69.90;;;;;;5054883;28;20064;-83
2022/07/07 00:46:11;;;;;;;3.83;2.35;;;26.60;68.90;;;;;;5055020;28;20028;-83
2022/07/07 00:48:38;;;;;;;6.43;2.60;;;26.70;68.40;;;;;;5054855;28;20024;-85
2022/07/07 00:51:05;;;;;;;6.63;2.88;;;26.50;67.60;;;;;;5036657;28;20358;-84
2022/07/07 00:53:31;;;;;;;3.22;1.90;;;26.40;68.00;;;;;;5044453;28;20035;-85
2022/07/07 00:55:57;;;;;;;2.22;1.70;;;26.40;67.90;;;;;;5036307;28;20108;-80
2022/07/07 00:58:23;;;;;;;4.95;1.70;;;26.70;67.50;;;;;;5035163;28;20424;-81
2022/07/07 01:00:49;;;;;;;5.15;1.52;;;26.80;66.70;;;;;;5035120;28;20029;-80
2022/07/07 01:03:15;;;;;;;2.03;1.50;;;27.00;66.20;;;;;;5054144;28;20033;-80
2022/07/07 01:05:45;;;;;;;3.10;1.38;;;27.20;65.60;;;;;;5054615;28;20082;-81
2022/07/07 01:08:10;;;;;;;2.10;1.13;;;27.30;64.60;;;;;;5054945;28;20480;-84
2022/07/07 01:10:36;;;;;;;1.70;1.20;;;27.30;61.20;;;;;;5054730;28;20049;-83
2022/07/07 01:13:03;;;;;;;1.20;1.10;;;27.20;60.70;;;;;;5053931;28;20060;-81
2022/07/07 01:15:30;;;;;;;1.50;1.02;;;27.30;60.90;;;;;;5054393;28;20036;-82
2022/07/07 01:17:56;;;;;;;2.08;1.00;;;27.30;59.30;;;;;;5054851;28;20033;-81
2022/07/07 01:20:22;;;;;;;4.28;1.23;;;27.20;58.20;;;;;;5036720;28;20038;-82
2022/07/07 01:22:50;;;;;;;1.42;0.85;;;27.40;58.40;;;;;;5053742;28;20529;-82
2022/07/07 01:25:16;;;;;;;2.20;1.02;;;27.50;57.80;;;;;;5054121;28;20104;-82
2022/07/07 01:27:42;;;;;;;1.50;0.98;;;27.50;57.80;;;;;;5054027;28;20495;-82
2022/07/07 01:30:08;;;;;;;2.05;1.10;;;27.70;56.80;;;;;;5053793;28;20033;-82
2022/07/07 01:32:34;;;;;;;3.38;1.23;;;27.70;56.30;;;;;;5054256;28;20037;-81
2022/07/07 01:35:00;;;;;;;3.00;1.27;;;27.70;56.70;;;;;;5054421;28;20040;-80
2022/07/07 01:37:26;;;;;;;2.38;0.90;;;27.80;57.50;;;;;;5052076;28;20584;-80
2022/07/07 01:39:52;;;;;;;3.58;1.40;;;27.70;58.70;;;;;;5036026;28;20115;-80
2022/07/07 01:42:18;;;;;;;3.25;1.30;;;27.70;59.10;;;;;;5053857;28;20437;-80
2022/07/07 01:44:44;;;;;;;3.13;1.92;;;27.70;59.70;;;;;;5053988;28;20017;-82
2022/07/07 01:47:12;;;;;;;3.08;1.52;;;27.50;61.00;;;;;;5053465;28;20098;-86
2022/07/07 01:49:38;;;;;;;4.50;2.30;;;27.40;61.80;;;;;;5053106;28;20368;-85
2022/07/07 01:52:05;;;;;;;3.88;2.35;;;27.40;61.80;;;;;;5052591;28;20029;-85
2022/07/07 01:54:33;;;;;;;3.28;1.30;;;27.40;62.90;;;;;;5045965;28;20040;-86
2022/07/07 01:56:59;;;;;;;1.90;1.20;;;27.30;62.90;;;;;;5053278;28;20095;-85
2022/07/07 01:59:25;;;;;;;3.00;1.13;;;27.30;62.60;;;;;;5053568;28;20029;-83
2022/07/07 02:01:51;;;;;;;2.33;1.23;;;27.30;63.20;;;;;;5053964;28;20056;-83
2022/07/07 02:04:17;;;;;;;2.40;1.20;;;27.10;64.20;;;;;;5053952;28;20422;-83
2022/07/07 02:06:43;;;;;;;3.65;1.35;;;27.00;64.30;;;;;;5048946;28;20053;-83
2022/07/07 02:09:09;;;;;;;1.30;0.95;;;26.80;64.80;;;;;;5015885;28;20108;-83
2022/07/07 02:11:35;;;;;;;2.42;1.10;;;26.90;64.00;;;;;;5033460;28;20061;-83
2022/07/07 02:14:01;;;;;;;1.80;1.30;;;27.00;63.70;;;;;;5033808;28;20041;-83
2022/07/07 02:16:27;;;;;;;1.98;1.42;;;27.10;63.40;;;;;;5033553;28;20048;-82
2022/07/07 02:18:56;;;;;;;3.00;1.20;;;27.20;63.20;;;;;;5033214;28;20029;-83
2022/07/07 02:21:22;;;;;;;2.50;1.40;;;27.10;63.00;;;;;;5036738;28;20033;-82
2022/07/07 02:23:50;;;;;;;2.58;1.10;;;27.20;63.10;;;;;;5048535;28;20037;-83
2022/07/07 02:26:16;;;;;;;1.85;1.20;;;27.20;62.90;;;;;;5053010;28;20075;-83
2022/07/07 02:28:42;;;;;;;1.70;1.27;;;27.30;62.70;;;;;;5053400;28;20358;-83
2022/07/07 02:31:09;;;;;;;2.80;0.82;;;27.20;62.60;;;;;;5052871;28;20413;-83
2022/07/07 02:33:35;;;;;;;2.38;1.50;;;27.20;62.70;;;;;;5052611;28;20103;-83
2022/07/07 02:36:03;;;;;;;2.53;1.20;;;27.10;62.90;;;;;;5052888;28;20021;-83
2022/07/07 02:38:29;;;;;;;1.42;1.08;;;26.80;62.80;;;;;;5052683;28;20177;-83
2022/07/07 02:40:55;;;;;;;1.50;1.23;;;26.70;63.00;;;;;;5052392;28;20033;-83
2022/07/07 02:43:21;;;;;;;2.58;1.10;;;26.80;62.80;;;;;;5034575;28;20473;-83
2022/07/07 02:45:49;;;;;;;1.67;1.02;;;26.80;62.70;;;;;;5052564;28;20067;-83
2022/07/07 02:48:17;;;;;;;1.63;0.90;;;26.90;62.10;;;;;;5053730;28;20080;-84
2022/07/07 02:50:44;;;;;;;3.13;1.25;;;27.00;61.70;;;;;;5055682;28;20032;-83
2022/07/07 02:53:11;;;;;;;1.98;0.70;;;26.90;61.00;;;;;;5047907;28;20029;-82
2022/07/07 02:55:38;;;;;;;1.52;0.55;;;27.00;61.00;;;;;;5051859;28;20532;-84
2022/07/07 02:58:05;;;;;;;3.30;1.10;;;26.80;60.60;;;;;;5054412;28;20029;-82
2022/07/07 03:00:34;;;;;;;0.95;0.80;;;26.80;60.20;;;;;;5054606;28;20032;-82
2022/07/07 03:03:01;;;;;;;1.20;1.02;;;26.60;59.80;;;;;;5057212;28;20089;-84
2022/07/07 03:05:27;;;;;;;1.00;0.85;;;26.60;60.00;;;;;;5053566;28;20100;-83
2022/07/07 03:07:54;;;;;;;1.27;0.88;;;26.50;59.90;;;;;;5036463;28;20179;-84
2022/07/07 03:10:20;;;;;;;3.13;1.17;;;26.60;60.10;;;;;;5052838;28;20025;-85
2022/07/07 03:12:45;;;;;;;1.63;0.77;;;26.50;59.90;;;;;;5049520;28;20163;-85
2022/07/07 03:15:11;;;;;;;1.10;0.80;;;26.60;59.90;;;;;;5020840;28;20029;-85
2022/07/07 03:17:41;;;;;;;3.97;0.80;;;26.50;60.10;;;;;;5052953;28;20052;-85
2022/07/07 03:20:07;;;;;;;;;;;26.50;60.10;;;;;;5052807;28;20033;-83
2022/07/07 03:23:01;;;;;;;2.63;1.02;;;26.50;60.30;;;;;;5052106;28;20015;-84
2022/07/07 03:25:27;;;;;;;0.95;0.90;;;26.60;60.30;;;;;;5034787;28;20442;-83
2022/07/07 03:27:53;;;;;;;1.38;0.77;;;26.60;60.20;;;;;;5052743;28;20056;-84
2022/07/07 03:30:18;;;;;;;1.40;0.82;;;26.50;60.40;;;;;;5052464;28;20037;-83
2022/07/07 03:32:44;;;;;;;0.70;0.60;;;26.30;60.90;;;;;;5052364;28;20110;-84
2022/07/07 03:35:09;;;;;;;4.97;1.25;;;26.30;61.20;;;;;;5052741;28;20461;-83
2022/07/07 03:37:36;;;;;;;0.90;0.82;;;26.30;61.70;;;;;;5045489;28;20061;-83
2022/07/07 03:40:04;;;;;;;1.42;1.00;;;26.40;61.20;;;;;;5046722;28;20033;-82
2022/07/07 03:42:29;;;;;;;6.72;1.45;;;26.40;61.50;;;;;;5052379;28;20465;-82
2022/07/07 03:44:55;;;;;;;1.50;1.10;;;26.30;62.50;;;;;;5052423;28;20027;-82
2022/07/07 03:47:21;;;;;;;1.73;1.20;;;26.20;62.20;;;;;;5052114;28;20021;-82
2022/07/07 03:49:46;;;;;;;3.17;1.13;;;26.00;63.30;;;;;;5052145;28;20032;-82
2022/07/07 03:52:12;;;;;;;2.17;0.90;;;26.10;63.40;;;;;;5052056;28;20037;-82
2022/07/07 03:54:38;;;;;;;0.75;0.75;;;26.20;63.10;;;;;;5052086;28;20025;-81
2022/07/07 03:57:04;;;;;;;1.88;1.33;;;26.20;63.30;;;;;;5031595;28;20040;-81
2022/07/07 03:59:29;;;;;;;1.33;0.90;;;26.20;63.90;;;;;;5032222;28;20390;-80
2022/07/07 04:01:55;;;;;;;1.67;1.00;;;26.20;63.30;;;;;;5032406;28;20029;-83
2022/07/07 04:04:20;;;;;;;1.17;1.05;;;25.80;64.30;;;;;;5032306;28;20466;-81
2022/07/07 04:06:46;;;;;;;0.88;0.80;;;25.90;64.50;;;;;;5014754;28;20103;-80
2022/07/07 04:09:12;;;;;;;1.88;1.20;;;26.00;64.20;;;;;;5049514;28;20033;-80
2022/07/07 04:11:37;;;;;;;1.00;0.88;;;26.10;64.00;;;;;;5055580;28;20523;-82
2022/07/07 04:14:04;;;;;;;1.27;1.17;;;26.00;64.50;;;;;;5055762;28;20455;-81
2022/07/07 04:16:30;;;;;;;3.60;1.00;;;25.90;64.70;;;;;;5055521;28;20029;-81
2022/07/07 04:18:56;;;;;;;3.28;1.48;;;25.60;65.70;;;;;;5055778;28;20040;-81
2022/07/07 04:21:22;;;;;;;1.95;1.02;;;25.50;66.20;;;;;;5055676;28;20032;-81
2022/07/07 04:23:48;;;;;;;1.65;1.10;;;25.40;66.40;;;;;;5039966;28;20036;-83
2022/07/07 04:26:13;;;;;;;2.08;1.48;;;25.30;66.60;;;;;;5035992;28;20029;-83
2022/07/07 04:28:39;;;;;;;4.72;1.23;;;25.30;67.10;;;;;;5035585;28;20041;-83
2022/07/07 04:31:05;;;;;;;2.40;1.05;;;25.30;67.00;;;;;;5035432;28;20120;-81
2022/07/07 04:33:30;;;;;;;1.23;0.90;;;25.40;66.70;;;;;;5035410;28;20037;-86
2022/07/07 04:35:56;;;;;;;1.27;0.80;;;25.40;66.20;;;;;;5035565;28;20057;-82
2022/07/07 04:38:22;;;;;;;1.27;0.98;;;25.30;66.80;;;;;;5048869;28;20104;-82
2022/07/07 04:40:47;;;;;;;3.78;1.40;;;25.40;66.50;;;;;;5055225;28;20466;-81
2022/07/07 04:43:13;;;;;;;4.18;1.05;;;25.50;66.30;;;;;;5055215;28;20086;-82
2022/07/07 04:45:39;;;;;;;3.15;1.20;;;25.60;66.20;;;;;;5054682;28;20036;-83
2022/07/07 04:48:05;;;;;;;1.85;1.20;;;25.60;66.00;;;;;;5054850;28;20032;-82
2022/07/07 04:50:30;;;;;;;2.33;1.27;;;25.60;66.00;;;;;;5055098;28;20059;-82
2022/07/07 04:52:56;;;;;;;2.03;0.93;;;25.60;66.00;;;;;;5053204;28;20417;-82
2022/07/07 04:55:22;;;;;;;1.10;0.95;;;25.40;65.90;;;;;;5054791;28;20033;-81
2022/07/07 04:57:48;;;;;;;1.48;1.15;;;25.50;66.00;;;;;;5055117;28;20488;-81
2022/07/07 05:00:14;;;;;;;1.08;0.80;;;25.60;65.80;;;;;;5053907;28;20162;-82
2022/07/07 05:02:40;;;;;;;1.40;0.90;;;25.70;65.50;;;;;;5036538;28;20040;-83
2022/07/07 05:05:07;;;;;;;2.03;1.02;;;25.70;65.30;;;;;;5055088;28;20028;-81
2022/07/07 05:07:33;;;;;;;2.50;1.20;;;25.80;65.30;;;;;;5054202;28;20099;-81
2022/07/07 05:09:59;;;;;;;2.22;1.38;;;25.80;65.40;;;;;;5054051;28;20044;-81
2022/07/07 05:12:25;;;;;;;1.63;1.15;;;25.80;65.30;;;;;;5054182;28;20446;-80
2022/07/07 05:14:51;;;;;;;1.17;0.80;;;25.80;65.20;;;;;;5054671;28;20056;-81
2022/07/07 05:17:16;;;;;;;1.33;1.00;;;25.90;65.00;;;;;;5035742;28;20146;-80
2022/07/07 05:19:42;;;;;;;4.70;1.52;;;25.90;65.00;;;;;;5061074;28;20051;-80
2022/07/07 05:22:08;;;;;;;2.63;1.30;;;25.90;64.60;;;;;;5054404;28;20033;-80
2022/07/07 05:24:34;;;;;;;1.13;0.98;;;26.00;64.70;;;;;;5053973;28;20441;-80
2022/07/07 05:26:59;;;;;;;1.45;1.00;;;26.00;64.50;;;;;;5053969;28;20392;-80
2022/07/07 05:29:26;;;;;;;2.00;1.23;;;26.00;64.40;;;;;;5054028;28;20024;-80
2022/07/07 05:31:52;;;;;;;2.20;1.00;;;25.90;64.30;;;;;;5054637;28;20132;-80
2022/07/07 05:34:17;;;;;;;2.65;1.02;;;25.90;64.40;;;;;;5052868;28;20568;-80
2022/07/07 05:36:44;;;;;;;2.25;1.10;;;25.90;64.40;;;;;;5064210;28;20029;-79
2022/07/07 05:39:13;;;;;;;1.58;1.15;;;26.00;64.50;;;;;;5060115;28;20063;-80
2022/07/07 05:41:39;;;;;;;1.60;1.00;;;26.00;64.90;;;;;;5068275;28;20040;-79
2022/07/07 05:44:05;;;;;;;1.42;0.95;;;26.00;65.10;;;;;;5052178;28;20033;-80
2022/07/07 05:46:31;;;;;;;5.00;2.03;;;26.00;65.50;;;;;;5052378;28;20033;-79
2022/07/07 05:48:57;;;;;;;2.28;1.40;;;25.90;67.20;;;;;;5052585;28;20362;-80
2022/07/07 05:51:23;;;;;;;2.20;1.35;;;25.80;66.90;;;;;;5051751;28;20033;-78
2022/07/07 05:53:49;;;;;;;1.10;0.80;;;25.40;68.10;;;;;;5042846;28;20029;-81
2022/07/07 05:56:14;;;;;;;2.47;0.98;;;25.50;67.90;;;;;;5046836;28;20036;-82
2022/07/07 05:58:42;;;;;;;2.47;1.30;;;25.60;68.70;;;;;;5051225;28;20044;-82
2022/07/07 06:01:07;;;;;;;1.75;1.20;;;25.70;69.40;;;;;;5052835;28;20086;-82
2022/07/07 06:03:33;;;;;;;2.03;1.25;;;25.60;68.50;;;;;;5052666;28;20388;-81
2022/07/07 06:05:59;;;;;;;1.13;0.98;;;25.60;68.20;;;;;;5044985;28;20044;-82
2022/07/07 06:08:25;;;;;;;2.47;1.30;;;25.70;68.00;;;;;;5048308;28;20048;-79
2022/07/07 06:10:51;;;;;;;3.97;1.42;;;25.70;68.40;;;;;;5052977;28;20043;-83
2022/07/07 06:13:17;;;;;;;1.17;0.98;;;25.80;68.40;;;;;;5052759;28;20033;-82
2022/07/07 06:15:43;;;;;;;2.97;1.20;;;25.80;68.00;;;;;;5043228;28;20040;-83
2022/07/07 06:18:09;;;;;;;2.85;1.13;;;25.90;68.20;;;;;;5033688;28;20462;-82
2022/07/07 06:20:34;;;;;;;1.73;1.30;;;25.90;68.00;;;;;;5015712;28;20041;-83
2022/07/07 06:23:00;;;;;;;2.85;1.52;;;25.90;67.80;;;;;;5033657;28;20033;-82
2022/07/07 06:25:28;;;;;;;3.92;1.55;;;26.00;67.70;;;;;;5033638;28;20034;-83
2022/07/07 06:27:54;;;;;;;4.35;1.73;;;26.10;67.60;;;;;;5033351;28;20025;-83
2022/07/07 06:30:20;;;;;;;1.52;1.20;;;26.10;67.20;;;;;;5039473;28;20041;-82
2022/07/07 06:32:46;;;;;;;1.88;1.15;;;26.10;67.00;;;;;;5052236;28;20098;-82
2022/07/07 06:35:14;;;;;;;2.45;1.20;;;26.00;66.80;;;;;;5052871;28;20020;-82
2022/07/07 06:37:40;;;;;;;4.10;1.42;;;25.90;66.90;;;;;;5053260;28;20025;-82
2022/07/07 06:40:06;;;;;;;2.22;1.35;;;25.90;67.00;;;;;;5033891;28;20070;-82
2022/07/07 06:42:32;;;;;;;2.35;1.30;;;26.00;66.80;;;;;;5053327;28;20122;-83
2022/07/07 06:44:57;;;;;;;4.60;1.10;;;25.90;66.90;;;;;;5053334;28;20429;-83
2022/07/07 06:47:24;;;;;;;1.23;0.90;;;25.90;66.70;;;;;;5053503;28;20036;-83
2022/07/07 06:49:50;;;;;;;1.42;1.10;;;25.90;66.70;;;;;;5049889;28;20037;-82
2022/07/07 06:52:15;;;;;;;2.88;1.13;;;26.00;66.60;;;;;;5035684;28;20040;-84
2022/07/07 06:54:41;;;;;;;1.35;1.08;;;26.10;66.50;;;;;;5051981;28;20055;-85
2022/07/07 06:57:07;;;;;;;4.25;1.00;;;26.10;66.50;;;;;;5052237;28;20024;-84
2022/07/07 06:59:33;;;;;;;15.93;14.00;;;26.10;66.20;;;;;;5052271;28;20104;-83
2022/07/07 07:01:59;;;;;;;17.13;15.15;;;26.20;66.30;;;;;;5052557;28;20037;-82
2022/07/07 07:04:25;;;;;;;99.93;89.38;;;26.20;66.30;;;;;;5053124;28;20079;-83
2022/07/07 07:06:50;;;;;;;17.73;15.45;;;26.20;66.20;;;;;;5034655;28;20086;-85
2022/07/07 07:09:16;;;;;;;3.50;3.20;;;26.20;66.10;;;;;;5054578;28;20113;-85
2022/07/07 07:11:42;;;;;;;2.05;1.30;;;26.20;66.20;;;;;;5073198;28;20017;-83
2022/07/07 07:14:08;;;;;;;1.60;1.15;;;26.10;66.10;;;;;;5064909;28;20055;-83
2022/07/07 07:16:33;;;;;;;1.88;1.48;;;26.00;66.00;;;;;;5037023;28;20445;-84
2022/07/07 07:18:59;;;;;;;2.22;1.30;;;26.00;66.20;;;;;;5046731;28;20044;-84
2022/07/07 07:21:28;;;;;;;2.17;1.30;;;26.00;66.30;;;;;;5031802;28;20024;-79
2022/07/07 07:23:53;;;;;;;2.88;1.55;;;26.00;66.30;;;;;;5034603;28;20025;-78
2022/07/07 07:26:19;;;;;;;2.72;1.08;;;26.10;66.20;;;;;;5052348;28;20040;-82
2022/07/07 07:28:45;;;;;;;2.47;1.58;;;26.10;66.30;;;;;;5052375;28;20040;-79
2022/07/07 07:31:11;;;;;;;3.70;1.25;;;26.20;66.30;;;;;;5052414;28;20044;-79
2022/07/07 07:33:39;;;;;;;2.80;1.52;;;26.20;66.00;;;;;;5052825;28;20040;-79
2022/07/07 07:36:07;;;;;;;2.05;1.35;;;26.30;65.80;;;;;;5052600;28;20021;-83
2022/07/07 07:38:39;;;;;;;2.28;1.00;;;26.30;65.60;;;;;;5034497;28;20124;-84
2022/07/07 07:41:07;;;;;;;1.60;1.00;;;26.40;65.40;;;;;;5042318;28;20052;-86
2022/07/07 07:43:34;;;;;;;1.65;0.90;;;26.50;65.10;;;;;;5027746;28;20028;-84
2022/07/07 07:46:00;;;;;;;1.50;0.90;;;26.60;65.00;;;;;;5049409;28;20021;-77
2022/07/07 07:48:26;;;;;;;3.13;1.40;;;26.60;64.90;;;;;;5054504;28;20035;-78
2022/07/07 07:50:52;;;;;;;2.35;1.52;;;26.60;64.20;;;;;;5055167;28;20029;-79
2022/07/07 07:53:17;;;;;;;1.52;1.00;;;26.60;64.30;;;;;;5037581;28;20029;-79
2022/07/07 07:55:50;;;;;;;3.75;1.10;;;26.60;64.90;;;;;;5075563;28;20079;-84
2022/07/07 07:58:18;;;;;;;1.95;1.00;;;26.70;64.20;;;;;;5075920;28;20074;-79
2022/07/07 08:00:44;;;;;;;3.20;1.08;;;26.80;64.10;;;;;;5076035;28;20495;-79
2022/07/07 08:03:10;;;;;;;2.20;1.10;;;26.90;63.70;;;;;;5072987;28;20028;-78
2022/07/07 08:05:36;;;;;;;1.25;1.08;;;27.00;63.30;;;;;;5035847;28;20017;-78
2022/07/07 08:08:01;;;;;;;2.05;1.10;;;27.00;62.60;;;;;;5051534;28;20124;-80
2022/07/07 08:10:27;;;;;;;2.75;1.10;;;27.00;62.10;;;;;;5054851;28;20474;-79
2022/07/07 08:12:53;;;;;;;3.28;1.27;;;27.00;62.30;;;;;;5049933;28;20065;-79
2022/07/07 08:15:19;;;;;;;2.33;0.90;;;27.10;62.60;;;;;;5037429;28;20028;-79
2022/07/07 08:17:45;;;;;;;1.65;0.93;;;27.20;62.70;;;;;;5062436;28;20021;-79
2022/07/07 08:20:11;;;;;;;1.58;1.13;;;27.30;62.70;;;;;;5055237;28;20040;-78
2022/07/07 08:22:37;;;;;;;3.45;1.05;;;27.40;62.40;;;;;;5054776;28;20033;-79
2022/07/07 08:25:03;;;;;;;1.90;0.90;;;27.50;62.20;;;;;;5044498;28;20561;-76
2022/07/07 08:27:29;;;;;;;1.13;1.02;;;27.50;62.00;;;;;;5055450;28;20017;-83
2022/07/07 08:29:55;;;;;;;2.30;1.48;;;27.50;61.70;;;;;;5045461;28;20017;-87
2022/07/07 08:32:21;;;;;;;2.95;0.90;;;27.60;61.50;;;;;;5056773;28;20373;-83
2022/07/07 08:34:47;;;;;;;3.22;1.30;;;27.70;61.80;;;;;;5040195;28;20086;-78
2022/07/07 08:37:13;;;;;;;3.58;1.60;;;27.80;61.70;;;;;;5060077;28;20025;-78
2022/07/07 08:39:39;;;;;;;3.90;1.13;;;27.90;61.30;;;;;;5068175;28;20028;-77
2022/07/07 08:42:05;;;;;;;1.08;0.98;;;28.00;60.80;;;;;;5062263;28;20024;-78
2022/07/07 08:44:31;;;;;;;5.25;0.98;;;28.10;60.50;;;;;;5054718;28;20025;-78
2022/07/07 08:46:57;;;;;;;3.17;1.00;;;28.20;60.80;;;;;;5037181;28;20113;-79
2022/07/07 08:49:23;;;;;;;2.67;0.93;;;28.20;60.50;;;;;;5052158;28;20473;-80
2022/07/07 08:51:49;;;;;;;1.52;0.80;;;28.30;60.20;;;;;;5052948;28;20021;-80
2022/07/07 08:54:16;;;;;;;1.30;0.80;;;28.30;60.00;;;;;;5053940;28;20365;-78
2022/07/07 08:56:44;;;;;;;2.78;1.05;;;28.40;60.00;;;;;;5054411;28;20078;-79
2022/07/07 08:59:13;;;;;;;3.17;0.90;;;28.40;59.90;;;;;;5054303;28;20067;-78
2022/07/07 09:01:39;;;;;;;5.20;0.95;;;28.50;59.90;;;;;;5069145;28;20052;-84
2022/07/07 09:04:06;;;;;;;2.35;0.90;;;28.60;59.70;;;;;;5053374;28;20029;-78
2022/07/07 09:06:32;;;;;;;2.42;1.42;;;28.60;59.10;;;;;;5036797;28;20056;-79
2022/07/07 09:09:01;;;;;;;1.92;0.80;;;28.60;58.10;;;;;;5054592;28;20048;-80
2022/07/07 09:11:34;;;;;;;1.17;1.02;;;28.60;58.50;;;;;;5054538;28;20036;-80
2022/07/07 09:14:11;;;;;;;1.50;0.95;;;28.60;58.40;;;;;;5054104;28;20047;-90
2022/07/07 09:16:37;;;;;;;1.45;0.90;;;28.60;58.70;;;;;;5054608;28;20477;-81
2022/07/07 09:19:06;;;;;;;0.63;0.63;;;28.60;59.00;;;;;;5054252;28;20060;-78
2022/07/07 09:21:33;;;;;;;1.80;0.88;;;28.70;58.70;;;;;;5034467;28;20033;-80
2022/07/07 09:23:59;;;;;;;1.58;1.00;;;28.70;58.50;;;;;;5042900;28;20033;-78
2022/07/07 09:26:43;;;;;;;2.13;1.00;;;28.90;58.40;;;;;;5054107;28;20068;-78
2022/07/07 09:29:10;;;;;;;0.98;0.80;;;29.00;58.30;;;;;;5052738;28;20477;-78
2022/07/07 09:32:01;;;;;;;1.20;0.80;;;29.10;58.40;;;;;;5053934;28;20056;-80
2022/07/07 09:34:31;;;;;;;2.78;0.90;;;29.20;58.40;;;;;;5047467;28;20138;-80
2022/07/07 09:39:47;;;;;;;1.25;0.88;;;29.30;58.40;;;;;;5053960;28;19954;-86
2022/07/07 09:42:27;;;;;;;1.63;1.02;;;29.40;58.20;;;;;;5052549;28;20051;-79
2022/07/07 09:45:02;;;;;;;3.03;1.30;;;29.50;58.00;;;;;;5053692;28;20052;-84
2022/07/07 09:47:32;;;;;;;1.90;1.00;;;29.60;57.70;;;;;;5055752;28;20255;-82
2022/07/07 09:49:58;;;;;;;;;;;29.70;57.70;;;;;;5054468;28;20032;-88
2022/07/07 09:52:25;;;;;;;3.35;0.93;;;29.70;57.20;;;;;;5053980;28;19954;-85
2022/07/07 09:54:51;;;;;;;2.17;1.00;;;29.80;57.00;;;;;;5067722;28;20104;-81
2022/07/07 09:57:18;;;;;;;1.08;0.57;;;29.90;56.70;;;;;;5073830;28;20128;-81
2022/07/07 09:59:45;;;;;;;1.13;0.70;;;30.00;56.20;;;;;;5073717;28;20031;-79
2022/07/07 10:02:20;;;;;;;1.58;0.90;;;30.00;55.80;;;;;;5073492;28;20111;-80
2022/07/07 10:04:52;;;;;;;1.70;1.00;;;30.00;54.10;;;;;;5053137;28;20071;-80
2022/07/07 10:07:20;;;;;;;1.17;0.75;;;29.90;54.20;;;;;;5053282;28;20037;-88
2022/07/07 10:09:53;;;;;;;3.15;0.80;;;29.90;54.90;;;;;;5053474;28;20021;-85
2022/07/07 10:12:21;;;;;;;0.65;0.65;;;30.10;55.80;;;;;;5053190;28;20049;-85
2022/07/07 10:14:49;;;;;;;0.80;0.73;;;30.20;55.50;;;;;;5037310;28;20083;-88
2022/07/07 10:17:19;;;;;;;0.93;0.82;;;30.30;54.90;;;;;;5050322;28;20029;-88
2022/07/07 10:19:44;;;;;;;0.82;0.57;;;30.40;54.70;;;;;;5068942;28;20021;-86
2022/07/07 10:22:13;;;;;;;1.38;0.65;;;30.60;54.90;;;;;;5073836;28;20029;-85
2022/07/07 10:24:40;;;;;;;1.02;0.82;;;30.80;54.70;;;;;;5035635;28;20032;-84
2022/07/07 10:27:07;;;;;;;2.00;0.80;;;30.80;54.20;;;;;;5050229;28;20060;-85
2022/07/07 10:29:41;;;;;;;1.25;0.70;;;30.80;53.40;;;;;;5050626;28;20029;-84
2022/07/07 10:32:16;;;;;;;1.73;0.80;;;30.80;53.30;;;;;;5050698;28;20094;-85
2022/07/07 10:34:52;;;;;;;2.53;0.90;;;30.80;53.60;;;;;;5031982;28;20052;-85
2022/07/07 10:37:19;;;;;;;0.63;0.63;;;30.90;53.20;;;;;;5050235;28;20028;-85
2022/07/07 10:39:48;;;;;;;0.52;0.45;;;31.00;53.10;;;;;;5050377;28;20020;-85
2022/07/07 10:42:17;;;;;;;1.17;0.70;;;31.20;52.50;;;;;;5049831;28;20021;-85
2022/07/07 10:44:48;;;;;;;1.20;0.90;;;31.30;50.80;;;;;;5050292;28;20113;-85
2022/07/07 10:47:28;;;;;;;2.22;0.80;;;31.40;50.60;;;;;;5031956;28;20436;-85
2022/07/07 10:49:55;;;;;;;1.05;0.70;;;31.30;50.50;;;;;;5050727;28;20066;-84
2022/07/07 10:52:26;;;;;;;1.95;0.70;;;31.40;51.20;;;;;;5050769;28;20029;-84
2022/07/07 10:55:01;;;;;;;0.73;0.68;;;31.60;51.70;;;;;;5030529;28;20493;-85
2022/07/07 10:57:38;;;;;;;1.70;0.75;;;31.80;51.60;;;;;;5034153;28;20107;-84
2022/07/07 11:00:09;;;;;;;1.00;0.70;;;32.00;51.10;;;;;;5049903;28;20029;-85
2022/07/07 11:02:58;;;;;;;0.85;0.73;;;32.10;49.80;;;;;;5049577;28;20037;-85
2022/07/07 11:05:27;;;;;;;0.60;0.60;;;32.20;48.70;;;;;;5024656;28;20361;-84
2022/07/07 11:07:55;;;;;;;1.00;0.73;;;32.40;49.90;;;;;;5050165;28;20518;-85
2022/07/07 11:10:22;;;;;;;0.77;0.57;;;32.50;49.80;;;;;;5050048;28;20484;-84
2022/07/07 11:12:52;;;;;;;1.70;0.90;;;32.70;49.30;;;;;;5050150;28;20128;-85
2022/07/07 11:15:18;;;;;;;2.17;1.05;;;32.80;48.10;;;;;;5050101;28;20469;-85
2022/07/07 11:17:45;;;;;;;1.95;0.60;;;32.90;48.60;;;;;;5052097;28;20037;-85
2022/07/07 11:20:14;;;;;;;0.50;0.50;;;32.90;48.30;;;;;;5053625;28;20041;-85
2022/07/07 11:22:51;;;;;;;0.98;0.70;;;33.10;47.70;;;;;;5053682;28;20374;-85
2022/07/07 11:25:23;;;;;;;0.65;0.52;;;33.30;47.00;;;;;;5033706;28;20040;-85
2022/07/07 11:27:50;;;;;;;0.70;0.70;;;33.50;46.40;;;;;;5054489;28;20025;-84
2022/07/07 11:30:22;;;;;;;0.88;0.75;;;33.60;46.40;;;;;;5053895;28;20047;-85
2022/07/07 11:32:50;;;;;;;1.00;0.77;;;33.80;45.80;;;;;;5053167;28;20465;-85
2022/07/07 11:35:16;;;;;;;1.25;0.90;;;34.00;45.90;;;;;;5053358;28;20041;-85
2022/07/07 11:37:44;;;;;;;1.35;0.90;;;34.40;45.90;;;;;;5053876;28;20056;-85
2022/07/07 11:40:13;;;;;;;4.30;0.82;;;34.80;45.70;;;;;;5054050;28;20064;-85
2022/07/07 11:42:40;;;;;;;3.47;0.90;;;35.10;45.30;;;;;;5036082;28;20064;-85
2022/07/07 11:45:19;;;;;;;2.38;1.10;;;35.40;43.40;;;;;;5053613;28;20032;-85
2022/07/07 11:47:46;;;;;;;1.15;0.90;;;35.60;41.00;;;;;;5037977;28;20055;-85
2022/07/07 11:50:12;;;;;;;0.73;0.73;;;35.70;41.00;;;;;;5055032;28;20025;-85
2022/07/07 11:52:45;;;;;;;1.33;1.05;;;35.60;40.10;;;;;;5054249;28;20066;-85
2022/07/07 11:55:12;;;;;;;2.35;1.05;;;35.60;40.00;;;;;;5039564;28;20365;-86
2022/07/07 11:57:37;;;;;;;19.00;0.90;;;35.40;39.80;;;;;;5055153;28;20054;-86
2022/07/07 12:00:24;;;;;;;1.42;1.02;;;35.60;39.60;;;;;;5058579;28;20534;-85
2022/07/07 12:02:52;;;;;;;3.08;1.10;;;35.80;38.10;;;;;;5059365;28;20330;-85
2022/07/07 12:05:20;;;;;;;1.38;1.00;;;36.10;39.50;;;;;;5056089;28;20389;-85
2022/07/07 12:08:13;;;;;;;0.80;0.80;;;36.30;38.80;;;;;;5037508;28;20036;-86
2022/07/07 12:10:49;;;;;;;2.65;1.00;;;36.40;37.20;;;;;;5053204;28;20041;-88
2022/07/07 12:13:15;;;;;;;11.52;0.77;;;36.40;38.50;;;;;;5056496;28;20103;-87
2022/07/07 12:15:50;;;;;;;1.58;0.85;;;36.20;37.50;;;;;;5026586;28;20082;-84
2022/07/07 12:18:31;;;;;;;3.28;0.77;;;36.00;37.10;;;;;;5053412;28;20032;-87
2022/07/07 12:21:02;;;;;;;2.88;0.68;;;35.80;37.60;;;;;;5054015;28;20032;-83
2022/07/07 12:23:29;;;;;;;1.65;0.80;;;35.60;38.30;;;;;;5071087;28;20025;-87
2022/07/07 12:26:08;;;;;;;1.40;0.68;;;35.30;38.60;;;;;;5062086;28;20044;-86
2022/07/07 12:28:35;;;;;;;1.27;0.88;;;35.10;39.30;;;;;;5061678;28;20380;-87
2022/07/07 12:31:01;;;;;;;2.20;0.98;;;34.90;39.70;;;;;;5065044;28;20049;-87
2022/07/07 12:33:30;;;;;;;1.17;0.70;;;34.80;40.30;;;;;;5044956;28;20032;-89
2022/07/07 12:36:07;;;;;;;4.40;1.17;;;34.90;40.70;;;;;;5061971;28;20041;-86
2022/07/07 12:38:42;;;;;;;1.00;0.82;;;35.10;40.10;;;;;;5046166;28;20065;-89
2022/07/07 12:41:08;;;;;;;0.68;0.57;;;35.10;39.70;;;;;;5063858;28;20102;-88
2022/07/07 12:43:36;;;;;;;2.35;0.93;;;35.20;39.90;;;;;;5052320;28;20028;-81
2022/07/07 12:46:10;;;;;;;1.30;0.77;;;35.30;39.40;;;;;;5045287;28;20017;-84
2022/07/07 12:48:47;;;;;;;3.17;0.88;;;35.20;38.40;;;;;;5053522;28;20033;-82
2022/07/07 12:51:14;;;;;;;1.38;0.95;;;35.10;38.40;;;;;;5055221;28;20107;-83
2022/07/07 12:53:42;;;;;;;2.10;0.90;;;34.90;38.10;;;;;;5054575;28;20182;-86
2022/07/07 12:56:10;;;;;;;3.88;0.93;;;34.70;38.60;;;;;;5036805;28;20028;-82
2022/07/07 12:59:21;;;;;;;2.63;0.90;;;34.50;39.90;;;;;;5053483;28;20051;-82
2022/07/07 13:01:55;;;;;;;1.25;0.70;;;34.30;40.30;;;;;;5045721;28;20045;-86
2022/07/07 13:04:23;;;;;;;1.13;0.70;;;34.00;40.60;;;;;;5049959;28;20025;-85
2022/07/07 13:06:54;;;;;;;0.70;0.70;;;33.90;40.60;;;;;;5065483;28;20062;-85
2022/07/07 13:09:20;;;;;;;3.53;0.90;;;33.60;40.50;;;;;;5061168;28;20023;-85
2022/07/07 13:11:49;;;;;;;1.35;0.85;;;33.50;41.20;;;;;;5043790;28;20016;-86
2022/07/07 13:14:16;;;;;;;1.10;0.60;;;33.40;41.70;;;;;;5062777;28;20025;-81